sensor_id;sensor_type;location;lat;lon;timestamp;P1;durP1;ratioP1;P2;durP2;ratioP2
52668;SDS011;59898;52.786;6.892;2023-06-04T00:03:17;5.38;;;3.35;;
52668;SDS011;59898;52.786;6.892;2023-06-04T00:06:38;4.60;;;3.33;;
52668;SDS011;59898;52.786;6.892;2023-06-04T00:09:59;4.90;;;2.92;;
52668;SDS011;59898;52.786;6.892;2023-06-04T00:13:19;6.82;;;4.32;;
52668;SDS011;59898;52.786;6.892;2023-06-04T00:16:40;4.25;;;3.50;;
52668;SDS011;59898;52.786;6.892;2023-06-04T00:20:01;5.57;;;3.25;;
52668;SDS011;59898;52.786;6.892;2023-06-04T00:23:22;6.82;;;3.40;;
52668;SDS011;59898;52.786;6.892;2023-06-04T00:26:43;6.47;;;3.33;;
52668;SDS011;59898;52.786;6.892;2023-06-04T00:30:04;7.65;;;3.67;;
52668;SDS011;59898;52.786;6.892;2023-06-04T00:33:26;11.07;;;3.93;;
52668;SDS011;59898;52.786;6.892;2023-06-04T00:36:47;7.03;;;3.70;;
52668;SDS011;59898;52.786;6.892;2023-06-04T00:40:07;6.57;;;4.47;;
52668;SDS011;59898;52.786;6.892;2023-06-04T00:43:28;5.78;;;4.45;;
52668;SDS011;59898;52.786;6.892;2023-06-04T00:46:51;8.00;;;3.83;;
52668;SDS011;59898;52.786;6.892;2023-06-04T00:50:13;8.75;;;4.28;;
52668;SDS011;59898;52.786;6.892;2023-06-04T00:53:34;10.70;;;3.90;;
52668;SDS011;59898;52.786;6.892;2023-06-04T00:56:54;6.95;;;4.05;;
52668;SDS011;59898;52.786;6.892;2023-06-04T01:00:15;8.80;;;4.15;;
52668;SDS011;59898;52.786;6.892;2023-06-04T01:03:38;14.88;;;5.00;;
52668;SDS011;59898;52.786;6.892;2023-06-04T01:07:03;12.27;;;5.22;;
52668;SDS011;59898;52.786;6.892;2023-06-04T01:10:24;9.13;;;4.93;;
52668;SDS011;59898;52.786;6.892;2023-06-04T01:13:45;6.30;;;3.95;;
52668;SDS011;59898;52.786;6.892;2023-06-04T01:20:42;12.13;;;4.67;;
52668;SDS011;59898;52.786;6.892;2023-06-04T01:24:06;13.93;;;4.78;;
52668;SDS011;59898;52.786;6.892;2023-06-04T01:27:28;10.48;;;5.47;;
52668;SDS011;59898;52.786;6.892;2023-06-04T01:30:50;10.25;;;4.75;;
52668;SDS011;59898;52.786;6.892;2023-06-04T01:34:11;8.05;;;4.85;;
52668;SDS011;59898;52.786;6.892;2023-06-04T01:37:31;19.33;;;5.88;;
52668;SDS011;59898;52.786;6.892;2023-06-04T01:40:52;9.40;;;4.75;;
52668;SDS011;59898;52.786;6.892;2023-06-04T01:44:16;10.73;;;4.75;;
52668;SDS011;59898;52.786;6.892;2023-06-04T01:47:36;10.48;;;5.63;;
52668;SDS011;59898;52.786;6.892;2023-06-04T01:50:57;7.28;;;4.40;;
52668;SDS011;59898;52.786;6.892;2023-06-04T01:54:18;15.32;;;6.50;;
52668;SDS011;59898;52.786;6.892;2023-06-04T01:57:39;12.57;;;5.65;;
52668;SDS011;59898;52.786;6.892;2023-06-04T02:01:00;8.73;;;5.20;;
52668;SDS011;59898;52.786;6.892;2023-06-04T02:04:23;11.85;;;4.75;;
52668;SDS011;59898;52.786;6.892;2023-06-04T02:07:44;8.85;;;5.45;;
52668;SDS011;59898;52.786;6.892;2023-06-04T02:11:05;9.48;;;4.47;;
52668;SDS011;59898;52.786;6.892;2023-06-04T02:14:26;9.43;;;5.47;;
52668;SDS011;59898;52.786;6.892;2023-06-04T02:17:47;12.25;;;5.82;;
52668;SDS011;59898;52.786;6.892;2023-06-04T02:21:07;10.60;;;5.38;;
52668;SDS011;59898;52.786;6.892;2023-06-04T02:24:28;10.27;;;5.18;;
52668;SDS011;59898;52.786;6.892;2023-06-04T02:27:48;11.70;;;5.47;;
52668;SDS011;59898;52.786;6.892;2023-06-04T02:31:09;10.90;;;4.90;;
52668;SDS011;59898;52.786;6.892;2023-06-04T02:34:30;11.25;;;5.93;;
52668;SDS011;59898;52.786;6.892;2023-06-04T02:37:50;14.30;;;5.32;;
52668;SDS011;59898;52.786;6.892;2023-06-04T02:41:11;9.57;;;5.57;;
52668;SDS011;59898;52.786;6.892;2023-06-04T02:44:31;11.60;;;5.40;;
52668;SDS011;59898;52.786;6.892;2023-06-04T02:47:52;15.27;;;6.32;;
52668;SDS011;59898;52.786;6.892;2023-06-04T02:51:13;12.60;;;5.65;;
52668;SDS011;59898;52.786;6.892;2023-06-04T02:54:33;9.20;;;5.40;;
52668;SDS011;59898;52.786;6.892;2023-06-04T02:57:54;13.07;;;5.32;;
52668;SDS011;59898;52.786;6.892;2023-06-04T03:01:18;12.40;;;5.88;;
52668;SDS011;59898;52.786;6.892;2023-06-04T03:04:40;13.23;;;5.70;;
52668;SDS011;59898;52.786;6.892;2023-06-04T03:08:02;12.57;;;6.40;;
52668;SDS011;59898;52.786;6.892;2023-06-04T03:11:23;10.82;;;6.30;;
52668;SDS011;59898;52.786;6.892;2023-06-04T03:14:44;9.45;;;5.40;;
52668;SDS011;59898;52.786;6.892;2023-06-04T03:18:05;13.55;;;5.60;;
52668;SDS011;59898;52.786;6.892;2023-06-04T03:21:26;13.40;;;5.55;;
52668;SDS011;59898;52.786;6.892;2023-06-04T03:24:48;7.45;;;4.47;;
52668;SDS011;59898;52.786;6.892;2023-06-04T03:28:09;12.30;;;5.53;;
52668;SDS011;59898;52.786;6.892;2023-06-04T03:31:30;10.15;;;6.07;;
52668;SDS011;59898;52.786;6.892;2023-06-04T03:34:52;14.77;;;5.43;;
52668;SDS011;59898;52.786;6.892;2023-06-04T03:38:12;12.98;;;6.40;;
52668;SDS011;59898;52.786;6.892;2023-06-04T03:41:34;11.65;;;5.50;;
52668;SDS011;59898;52.786;6.892;2023-06-04T03:44:54;10.13;;;5.35;;
52668;SDS011;59898;52.786;6.892;2023-06-04T03:48:19;9.23;;;6.10;;
52668;SDS011;59898;52.786;6.892;2023-06-04T03:51:40;9.38;;;5.72;;
52668;SDS011;59898;52.786;6.892;2023-06-04T03:55:01;10.40;;;6.15;;
52668;SDS011;59898;52.786;6.892;2023-06-04T03:58:22;19.27;;;6.70;;
52668;SDS011;59898;52.786;6.892;2023-06-04T04:01:44;19.85;;;7.07;;
52668;SDS011;59898;52.786;6.892;2023-06-04T04:05:04;12.73;;;6.53;;
52668;SDS011;59898;52.786;6.892;2023-06-04T04:08:25;11.98;;;6.35;;
52668;SDS011;59898;52.786;6.892;2023-06-04T04:11:50;10.77;;;5.93;;
52668;SDS011;59898;52.786;6.892;2023-06-04T04:15:10;18.75;;;6.57;;
52668;SDS011;59898;52.786;6.892;2023-06-04T04:18:34;10.50;;;6.50;;
52668;SDS011;59898;52.786;6.892;2023-06-04T04:21:56;11.13;;;6.50;;
52668;SDS011;59898;52.786;6.892;2023-06-04T04:25:16;12.10;;;6.68;;
52668;SDS011;59898;52.786;6.892;2023-06-04T04:28:37;9.40;;;6.22;;
52668;SDS011;59898;52.786;6.892;2023-06-04T04:31:58;9.65;;;6.90;;
52668;SDS011;59898;52.786;6.892;2023-06-04T04:35:31;14.65;;;7.28;;
52668;SDS011;59898;52.786;6.892;2023-06-04T04:38:52;10.98;;;6.63;;
52668;SDS011;59898;52.786;6.892;2023-06-04T04:42:18;11.77;;;6.30;;
52668;SDS011;59898;52.786;6.892;2023-06-04T04:45:39;9.45;;;5.85;;
52668;SDS011;59898;52.786;6.892;2023-06-04T04:49:00;10.68;;;6.55;;
52668;SDS011;59898;52.786;6.892;2023-06-04T04:52:20;11.02;;;6.18;;
52668;SDS011;59898;52.786;6.892;2023-06-04T04:55:41;15.00;;;6.93;;
52668;SDS011;59898;52.786;6.892;2023-06-04T04:59:02;13.52;;;6.15;;
52668;SDS011;59898;52.786;6.892;2023-06-04T05:02:22;12.73;;;7.32;;
52668;SDS011;59898;52.786;6.892;2023-06-04T05:05:43;23.58;;;8.00;;
52668;SDS011;59898;52.786;6.892;2023-06-04T05:09:03;17.02;;;7.32;;
52668;SDS011;59898;52.786;6.892;2023-06-04T05:12:29;15.32;;;7.50;;
52668;SDS011;59898;52.786;6.892;2023-06-04T05:15:51;13.38;;;7.57;;
52668;SDS011;59898;52.786;6.892;2023-06-04T05:19:12;15.02;;;6.82;;
52668;SDS011;59898;52.786;6.892;2023-06-04T05:22:33;10.43;;;6.68;;
52668;SDS011;59898;52.786;6.892;2023-06-04T05:25:53;13.63;;;7.72;;
52668;SDS011;59898;52.786;6.892;2023-06-04T05:29:14;14.52;;;8.30;;
52668;SDS011;59898;52.786;6.892;2023-06-04T05:32:35;12.70;;;7.88;;
52668;SDS011;59898;52.786;6.892;2023-06-04T05:36:00;15.35;;;7.47;;
52668;SDS011;59898;52.786;6.892;2023-06-04T05:39:21;18.85;;;7.78;;
52668;SDS011;59898;52.786;6.892;2023-06-04T05:42:44;13.38;;;8.18;;
52668;SDS011;59898;52.786;6.892;2023-06-04T05:46:04;11.80;;;7.63;;
52668;SDS011;59898;52.786;6.892;2023-06-04T05:49:26;16.65;;;7.60;;
52668;SDS011;59898;52.786;6.892;2023-06-04T05:52:47;10.93;;;7.70;;
52668;SDS011;59898;52.786;6.892;2023-06-04T05:56:07;13.20;;;7.70;;
52668;SDS011;59898;52.786;6.892;2023-06-04T05:59:28;12.27;;;8.20;;
52668;SDS011;59898;52.786;6.892;2023-06-04T06:02:49;11.20;;;7.60;;
52668;SDS011;59898;52.786;6.892;2023-06-04T06:06:10;12.95;;;7.55;;
52668;SDS011;59898;52.786;6.892;2023-06-04T06:09:31;13.25;;;8.10;;
52668;SDS011;59898;52.786;6.892;2023-06-04T06:12:51;16.85;;;8.00;;
52668;SDS011;59898;52.786;6.892;2023-06-04T06:16:12;12.48;;;7.55;;
52668;SDS011;59898;52.786;6.892;2023-06-04T06:19:33;16.25;;;7.18;;
52668;SDS011;59898;52.786;6.892;2023-06-04T06:22:53;9.20;;;6.68;;
52668;SDS011;59898;52.786;6.892;2023-06-04T06:26:14;10.70;;;6.40;;
52668;SDS011;59898;52.786;6.892;2023-06-04T06:29:36;8.70;;;6.47;;
52668;SDS011;59898;52.786;6.892;2023-06-04T06:32:56;8.40;;;6.22;;
52668;SDS011;59898;52.786;6.892;2023-06-04T06:36:17;10.20;;;5.47;;
52668;SDS011;59898;52.786;6.892;2023-06-04T06:39:38;10.90;;;5.90;;
52668;SDS011;59898;52.786;6.892;2023-06-04T06:42:59;7.10;;;4.93;;
52668;SDS011;59898;52.786;6.892;2023-06-04T06:46:19;13.55;;;6.07;;
52668;SDS011;59898;52.786;6.892;2023-06-04T06:49:40;8.02;;;4.93;;
52668;SDS011;59898;52.786;6.892;2023-06-04T06:53:01;13.30;;;5.65;;
52668;SDS011;59898;52.786;6.892;2023-06-04T06:56:22;7.13;;;5.03;;
52668;SDS011;59898;52.786;6.892;2023-06-04T06:59:43;10.45;;;5.22;;
52668;SDS011;59898;52.786;6.892;2023-06-04T07:03:04;7.05;;;3.85;;
52668;SDS011;59898;52.786;6.892;2023-06-04T07:06:24;8.65;;;4.90;;
52668;SDS011;59898;52.786;6.892;2023-06-04T07:09:45;6.30;;;4.20;;
52668;SDS011;59898;52.786;6.892;2023-06-04T07:13:06;10.95;;;4.15;;
52668;SDS011;59898;52.786;6.892;2023-06-04T07:16:26;6.68;;;4.18;;
52668;SDS011;59898;52.786;6.892;2023-06-04T07:19:47;8.07;;;4.20;;
52668;SDS011;59898;52.786;6.892;2023-06-04T07:23:07;6.85;;;3.55;;
52668;SDS011;59898;52.786;6.892;2023-06-04T07:26:28;7.80;;;3.63;;
52668;SDS011;59898;52.786;6.892;2023-06-04T07:29:50;7.55;;;4.00;;
52668;SDS011;59898;52.786;6.892;2023-06-04T07:33:11;7.13;;;3.38;;
52668;SDS011;59898;52.786;6.892;2023-06-04T07:36:31;6.93;;;3.17;;
52668;SDS011;59898;52.786;6.892;2023-06-04T07:39:52;12.95;;;4.22;;
52668;SDS011;59898;52.786;6.892;2023-06-04T07:43:13;5.63;;;3.75;;
52668;SDS011;59898;52.786;6.892;2023-06-04T07:46:34;8.30;;;3.58;;
52668;SDS011;59898;52.786;6.892;2023-06-04T07:49:54;6.30;;;3.25;;
52668;SDS011;59898;52.786;6.892;2023-06-04T07:53:15;6.28;;;3.63;;
52668;SDS011;59898;52.786;6.892;2023-06-04T07:56:35;7.18;;;3.90;;
52668;SDS011;59898;52.786;6.892;2023-06-04T07:59:57;7.38;;;3.80;;
52668;SDS011;59898;52.786;6.892;2023-06-04T08:03:19;5.57;;;3.25;;
52668;SDS011;59898;52.786;6.892;2023-06-04T08:06:40;4.60;;;2.70;;
52668;SDS011;59898;52.786;6.892;2023-06-04T08:10:02;8.95;;;3.38;;
52668;SDS011;59898;52.786;6.892;2023-06-04T08:13:22;5.18;;;2.58;;
52668;SDS011;59898;52.786;6.892;2023-06-04T08:16:43;6.55;;;2.90;;
52668;SDS011;59898;52.786;6.892;2023-06-04T08:20:03;7.68;;;2.92;;
52668;SDS011;59898;52.786;6.892;2023-06-04T08:23:29;4.32;;;2.85;;
52668;SDS011;59898;52.786;6.892;2023-06-04T08:26:49;5.28;;;2.90;;
52668;SDS011;59898;52.786;6.892;2023-06-04T08:30:10;4.10;;;2.42;;
52668;SDS011;59898;52.786;6.892;2023-06-04T08:33:31;7.35;;;3.05;;
52668;SDS011;59898;52.786;6.892;2023-06-04T08:36:52;5.57;;;3.05;;
52668;SDS011;59898;52.786;6.892;2023-06-04T08:40:12;7.47;;;2.70;;
52668;SDS011;59898;52.786;6.892;2023-06-04T08:43:33;6.95;;;4.60;;
52668;SDS011;59898;52.786;6.892;2023-06-04T08:46:56;18.10;;;10.60;;
52668;SDS011;59898;52.786;6.892;2023-06-04T08:50:28;4.65;;;2.70;;
52668;SDS011;59898;52.786;6.892;2023-06-04T08:53:49;8.00;;;3.35;;
52668;SDS011;59898;52.786;6.892;2023-06-04T08:57:13;4.68;;;3.05;;
52668;SDS011;59898;52.786;6.892;2023-06-04T09:00:34;4.72;;;2.90;;
52668;SDS011;59898;52.786;6.892;2023-06-04T09:03:54;4.13;;;2.25;;
52668;SDS011;59898;52.786;6.892;2023-06-04T09:07:15;4.63;;;2.80;;
52668;SDS011;59898;52.786;6.892;2023-06-04T09:10:37;6.60;;;2.33;;
52668;SDS011;59898;52.786;6.892;2023-06-04T09:13:59;4.65;;;2.50;;
52668;SDS011;59898;52.786;6.892;2023-06-04T09:17:24;6.30;;;2.75;;
52668;SDS011;59898;52.786;6.892;2023-06-04T09:20:44;6.00;;;2.58;;
52668;SDS011;59898;52.786;6.892;2023-06-04T09:24:05;4.38;;;2.45;;
52668;SDS011;59898;52.786;6.892;2023-06-04T09:27:26;9.15;;;2.67;;
52668;SDS011;59898;52.786;6.892;2023-06-04T09:30:51;5.37;;;2.20;;
52668;SDS011;59898;52.786;6.892;2023-06-04T09:34:13;7.75;;;3.33;;
52668;SDS011;59898;52.786;6.892;2023-06-04T09:37:35;4.77;;;2.60;;
52668;SDS011;59898;52.786;6.892;2023-06-04T09:40:55;5.40;;;2.80;;
52668;SDS011;59898;52.786;6.892;2023-06-04T09:44:16;8.38;;;2.60;;
52668;SDS011;59898;52.786;6.892;2023-06-04T09:47:43;3.78;;;2.83;;
52668;SDS011;59898;52.786;6.892;2023-06-04T09:51:07;5.35;;;2.97;;
52668;SDS011;59898;52.786;6.892;2023-06-04T09:54:40;8.05;;;3.60;;
52668;SDS011;59898;52.786;6.892;2023-06-04T09:58:01;4.47;;;2.27;;
52668;SDS011;59898;52.786;6.892;2023-06-04T10:01:25;4.38;;;2.58;;
52668;SDS011;59898;52.786;6.892;2023-06-04T10:04:49;10.60;;;2.78;;
52668;SDS011;59898;52.786;6.892;2023-06-04T10:08:17;5.35;;;2.50;;
52668;SDS011;59898;52.786;6.892;2023-06-04T10:11:43;7.28;;;3.38;;
52668;SDS011;59898;52.786;6.892;2023-06-04T10:15:16;4.65;;;2.97;;
52668;SDS011;59898;52.786;6.892;2023-06-04T10:18:37;5.05;;;3.08;;
52668;SDS011;59898;52.786;6.892;2023-06-04T10:21:59;6.18;;;2.83;;
52668;SDS011;59898;52.786;6.892;2023-06-04T10:25:19;7.20;;;2.95;;
52668;SDS011;59898;52.786;6.892;2023-06-04T10:28:41;4.50;;;2.53;;
52668;SDS011;59898;52.786;6.892;2023-06-04T10:32:03;6.32;;;2.30;;
52668;SDS011;59898;52.786;6.892;2023-06-04T10:35:30;10.40;;;2.70;;
52668;SDS011;59898;52.786;6.892;2023-06-04T10:38:55;4.68;;;2.67;;
52668;SDS011;59898;52.786;6.892;2023-06-04T10:42:15;5.80;;;2.72;;
52668;SDS011;59898;52.786;6.892;2023-06-04T10:45:38;7.18;;;3.20;;
52668;SDS011;59898;52.786;6.892;2023-06-04T10:49:00;5.40;;;2.70;;
52668;SDS011;59898;52.786;6.892;2023-06-04T10:52:21;3.85;;;2.47;;
52668;SDS011;59898;52.786;6.892;2023-06-04T10:55:45;4.93;;;3.25;;
52668;SDS011;59898;52.786;6.892;2023-06-04T10:59:14;8.10;;;2.58;;
52668;SDS011;59898;52.786;6.892;2023-06-04T11:02:35;9.30;;;2.65;;
52668;SDS011;59898;52.786;6.892;2023-06-04T11:05:57;7.68;;;3.85;;
52668;SDS011;59898;52.786;6.892;2023-06-04T11:09:17;7.63;;;2.95;;
52668;SDS011;59898;52.786;6.892;2023-06-04T11:12:43;4.13;;;2.50;;
52668;SDS011;59898;52.786;6.892;2023-06-04T11:16:14;5.55;;;2.55;;
52668;SDS011;59898;52.786;6.892;2023-06-04T11:19:36;8.48;;;2.67;;
52668;SDS011;59898;52.786;6.892;2023-06-04T11:22:58;5.60;;;4.15;;
52668;SDS011;59898;52.786;6.892;2023-06-04T11:26:19;8.60;;;3.88;;
52668;SDS011;59898;52.786;6.892;2023-06-04T11:29:41;4.63;;;2.53;;
52668;SDS011;59898;52.786;6.892;2023-06-04T11:33:05;4.50;;;2.33;;
52668;SDS011;59898;52.786;6.892;2023-06-04T11:36:26;6.47;;;2.38;;
52668;SDS011;59898;52.786;6.892;2023-06-04T11:39:49;5.07;;;2.80;;
52668;SDS011;59898;52.786;6.892;2023-06-04T11:43:10;3.90;;;2.40;;
52668;SDS011;59898;52.786;6.892;2023-06-04T11:46:34;8.75;;;4.68;;
52668;SDS011;59898;52.786;6.892;2023-06-04T11:49:55;5.38;;;2.88;;
52668;SDS011;59898;52.786;6.892;2023-06-04T11:53:17;3.10;;;2.35;;
52668;SDS011;59898;52.786;6.892;2023-06-04T11:56:37;5.70;;;2.50;;
52668;SDS011;59898;52.786;6.892;2023-06-04T11:59:58;5.55;;;3.10;;
52668;SDS011;59898;52.786;6.892;2023-06-04T12:03:19;4.43;;;2.38;;
52668;SDS011;59898;52.786;6.892;2023-06-04T12:06:51;8.75;;;4.85;;
52668;SDS011;59898;52.786;6.892;2023-06-04T12:10:12;7.00;;;3.50;;
52668;SDS011;59898;52.786;6.892;2023-06-04T12:13:36;3.53;;;2.83;;
52668;SDS011;59898;52.786;6.892;2023-06-04T12:16:58;4.32;;;2.63;;
52668;SDS011;59898;52.786;6.892;2023-06-04T12:20:27;6.45;;;2.88;;
52668;SDS011;59898;52.786;6.892;2023-06-04T12:27:33;6.90;;;2.85;;
52668;SDS011;59898;52.786;6.892;2023-06-04T12:30:54;5.93;;;2.47;;
52668;SDS011;59898;52.786;6.892;2023-06-04T12:34:14;3.50;;;2.10;;
52668;SDS011;59898;52.786;6.892;2023-06-04T12:37:35;6.88;;;2.92;;
52668;SDS011;59898;52.786;6.892;2023-06-04T12:40:56;5.20;;;3.00;;
52668;SDS011;59898;52.786;6.892;2023-06-04T12:44:17;5.07;;;2.42;;
52668;SDS011;59898;52.786;6.892;2023-06-04T12:47:37;4.78;;;2.28;;
52668;SDS011;59898;52.786;6.892;2023-06-04T12:50:58;3.78;;;2.65;;
52668;SDS011;59898;52.786;6.892;2023-06-04T12:54:18;3.55;;;2.53;;
52668;SDS011;59898;52.786;6.892;2023-06-04T12:57:39;4.35;;;2.63;;
52668;SDS011;59898;52.786;6.892;2023-06-04T13:01:00;5.35;;;2.28;;
52668;SDS011;59898;52.786;6.892;2023-06-04T13:04:21;3.78;;;2.25;;
52668;SDS011;59898;52.786;6.892;2023-06-04T13:07:43;4.03;;;2.30;;
52668;SDS011;59898;52.786;6.892;2023-06-04T13:11:04;10.13;;;3.20;;
52668;SDS011;59898;52.786;6.892;2023-06-04T13:14:25;4.45;;;2.80;;
52668;SDS011;59898;52.786;6.892;2023-06-04T13:17:46;3.75;;;2.88;;
52668;SDS011;59898;52.786;6.892;2023-06-04T13:21:06;4.53;;;2.72;;
52668;SDS011;59898;52.786;6.892;2023-06-04T13:24:27;4.00;;;2.90;;
52668;SDS011;59898;52.786;6.892;2023-06-04T13:27:48;3.78;;;2.65;;
52668;SDS011;59898;52.786;6.892;2023-06-04T13:31:08;5.53;;;2.72;;
52668;SDS011;59898;52.786;6.892;2023-06-04T13:34:29;4.70;;;2.80;;
52668;SDS011;59898;52.786;6.892;2023-06-04T13:41:12;3.95;;;2.67;;
52668;SDS011;59898;52.786;6.892;2023-06-04T13:44:33;4.93;;;2.90;;
52668;SDS011;59898;52.786;6.892;2023-06-04T13:47:53;4.32;;;2.60;;
52668;SDS011;59898;52.786;6.892;2023-06-04T13:51:14;7.03;;;3.22;;
52668;SDS011;59898;52.786;6.892;2023-06-04T13:54:35;6.53;;;3.13;;
52668;SDS011;59898;52.786;6.892;2023-06-04T13:57:55;7.50;;;3.30;;
52668;SDS011;59898;52.786;6.892;2023-06-04T14:01:16;4.30;;;3.42;;
52668;SDS011;59898;52.786;6.892;2023-06-04T14:04:36;4.60;;;3.15;;
52668;SDS011;59898;52.786;6.892;2023-06-04T14:07:57;5.53;;;2.65;;
52668;SDS011;59898;52.786;6.892;2023-06-04T14:11:18;5.00;;;2.58;;
52668;SDS011;59898;52.786;6.892;2023-06-04T14:14:38;3.83;;;2.35;;
52668;SDS011;59898;52.786;6.892;2023-06-04T14:17:59;5.78;;;2.60;;
52668;SDS011;59898;52.786;6.892;2023-06-04T14:21:20;4.00;;;2.50;;
52668;SDS011;59898;52.786;6.892;2023-06-04T14:24:41;5.45;;;2.60;;
52668;SDS011;59898;52.786;6.892;2023-06-04T14:28:02;4.25;;;2.50;;
52668;SDS011;59898;52.786;6.892;2023-06-04T14:31:22;4.32;;;2.58;;
52668;SDS011;59898;52.786;6.892;2023-06-04T14:34:43;4.50;;;2.97;;
52668;SDS011;59898;52.786;6.892;2023-06-04T14:38:04;4.78;;;3.10;;
52668;SDS011;59898;52.786;6.892;2023-06-04T14:41:25;5.75;;;3.35;;
52668;SDS011;59898;52.786;6.892;2023-06-04T14:44:47;3.85;;;3.00;;
52668;SDS011;59898;52.786;6.892;2023-06-04T14:48:07;4.53;;;3.05;;
52668;SDS011;59898;52.786;6.892;2023-06-04T14:51:29;3.72;;;2.65;;
52668;SDS011;59898;52.786;6.892;2023-06-04T14:54:49;4.72;;;3.08;;
52668;SDS011;59898;52.786;6.892;2023-06-04T14:58:10;4.80;;;2.67;;
52668;SDS011;59898;52.786;6.892;2023-06-04T15:01:31;3.83;;;2.40;;
52668;SDS011;59898;52.786;6.892;2023-06-04T15:04:51;3.13;;;2.35;;
52668;SDS011;59898;52.786;6.892;2023-06-04T15:08:12;4.75;;;2.90;;
52668;SDS011;59898;52.786;6.892;2023-06-04T15:11:32;4.93;;;3.03;;
52668;SDS011;59898;52.786;6.892;2023-06-04T15:14:53;7.00;;;4.20;;
52668;SDS011;59898;52.786;6.892;2023-06-04T15:18:14;5.65;;;3.40;;
52668;SDS011;59898;52.786;6.892;2023-06-04T15:21:34;4.65;;;2.97;;
52668;SDS011;59898;52.786;6.892;2023-06-04T15:24:55;6.65;;;3.83;;
52668;SDS011;59898;52.786;6.892;2023-06-04T15:28:15;7.85;;;4.88;;
52668;SDS011;59898;52.786;6.892;2023-06-04T15:31:36;6.80;;;2.95;;
52668;SDS011;59898;52.786;6.892;2023-06-04T15:34:56;6.15;;;3.17;;
52668;SDS011;59898;52.786;6.892;2023-06-04T15:38:18;9.07;;;3.13;;
52668;SDS011;59898;52.786;6.892;2023-06-04T15:41:38;9.07;;;3.45;;
52668;SDS011;59898;52.786;6.892;2023-06-04T15:44:59;5.90;;;3.10;;
52668;SDS011;59898;52.786;6.892;2023-06-04T15:48:19;5.97;;;3.53;;
52668;SDS011;59898;52.786;6.892;2023-06-04T15:51:41;5.50;;;3.35;;
52668;SDS011;59898;52.786;6.892;2023-06-04T15:55:01;6.05;;;2.92;;
52668;SDS011;59898;52.786;6.892;2023-06-04T15:58:22;7.80;;;3.33;;
52668;SDS011;59898;52.786;6.892;2023-06-04T16:01:42;4.88;;;3.00;;
52668;SDS011;59898;52.786;6.892;2023-06-04T16:05:05;6.10;;;3.03;;
52668;SDS011;59898;52.786;6.892;2023-06-04T16:08:25;6.03;;;3.00;;
52668;SDS011;59898;52.786;6.892;2023-06-04T16:11:46;5.80;;;2.80;;
52668;SDS011;59898;52.786;6.892;2023-06-04T16:15:06;6.53;;;3.70;;
52668;SDS011;59898;52.786;6.892;2023-06-04T16:18:27;6.78;;;3.38;;
52668;SDS011;59898;52.786;6.892;2023-06-04T16:21:48;7.40;;;3.33;;
52668;SDS011;59898;52.786;6.892;2023-06-04T16:25:09;5.63;;;3.35;;
52668;SDS011;59898;52.786;6.892;2023-06-04T16:28:29;9.20;;;3.70;;
52668;SDS011;59898;52.786;6.892;2023-06-04T16:31:50;5.38;;;3.25;;
52668;SDS011;59898;52.786;6.892;2023-06-04T16:35:10;6.20;;;2.97;;
52668;SDS011;59898;52.786;6.892;2023-06-04T16:38:32;6.78;;;2.90;;
52668;SDS011;59898;52.786;6.892;2023-06-04T16:41:52;8.63;;;5.10;;
52668;SDS011;59898;52.786;6.892;2023-06-04T16:45:13;4.90;;;3.20;;
52668;SDS011;59898;52.786;6.892;2023-06-04T16:48:34;5.15;;;3.10;;
52668;SDS011;59898;52.786;6.892;2023-06-04T16:51:55;6.55;;;2.97;;
52668;SDS011;59898;52.786;6.892;2023-06-04T16:55:15;5.13;;;3.30;;
52668;SDS011;59898;52.786;6.892;2023-06-04T16:58:39;9.52;;;4.40;;
52668;SDS011;59898;52.786;6.892;2023-06-04T17:02:00;6.13;;;3.45;;
52668;SDS011;59898;52.786;6.892;2023-06-04T17:05:21;5.22;;;3.58;;
52668;SDS011;59898;52.786;6.892;2023-06-04T17:08:41;6.57;;;3.20;;
52668;SDS011;59898;52.786;6.892;2023-06-04T17:12:02;4.47;;;3.75;;
52668;SDS011;59898;52.786;6.892;2023-06-04T17:15:23;5.78;;;2.90;;
52668;SDS011;59898;52.786;6.892;2023-06-04T17:18:44;6.70;;;3.38;;
52668;SDS011;59898;52.786;6.892;2023-06-04T17:22:05;5.35;;;2.90;;
52668;SDS011;59898;52.786;6.892;2023-06-04T17:25:26;5.80;;;3.15;;
52668;SDS011;59898;52.786;6.892;2023-06-04T17:28:50;3.90;;;3.00;;
52668;SDS011;59898;52.786;6.892;2023-06-04T17:32:11;3.78;;;2.70;;
52668;SDS011;59898;52.786;6.892;2023-06-04T17:35:31;6.50;;;3.50;;
52668;SDS011;59898;52.786;6.892;2023-06-04T17:38:52;4.82;;;2.65;;
52668;SDS011;59898;52.786;6.892;2023-06-04T17:42:12;4.45;;;2.92;;
52668;SDS011;59898;52.786;6.892;2023-06-04T17:45:33;5.97;;;2.90;;
52668;SDS011;59898;52.786;6.892;2023-06-04T17:48:54;4.65;;;2.80;;
52668;SDS011;59898;52.786;6.892;2023-06-04T17:52:14;6.47;;;3.38;;
52668;SDS011;59898;52.786;6.892;2023-06-04T17:55:35;9.02;;;2.83;;
52668;SDS011;59898;52.786;6.892;2023-06-04T17:58:56;4.82;;;2.50;;
52668;SDS011;59898;52.786;6.892;2023-06-04T18:02:17;7.45;;;3.58;;
52668;SDS011;59898;52.786;6.892;2023-06-04T18:05:37;4.88;;;3.22;;
52668;SDS011;59898;52.786;6.892;2023-06-04T18:08:58;5.03;;;2.90;;
52668;SDS011;59898;52.786;6.892;2023-06-04T18:12:19;4.40;;;2.78;;
52668;SDS011;59898;52.786;6.892;2023-06-04T18:15:39;6.20;;;2.72;;
52668;SDS011;59898;52.786;6.892;2023-06-04T18:19:00;8.98;;;3.05;;
52668;SDS011;59898;52.786;6.892;2023-06-04T18:22:20;4.80;;;2.60;;
52668;SDS011;59898;52.786;6.892;2023-06-04T18:25:41;5.63;;;3.30;;
52668;SDS011;59898;52.786;6.892;2023-06-04T18:29:01;6.35;;;4.28;;
52668;SDS011;59898;52.786;6.892;2023-06-04T18:32:22;5.15;;;2.90;;
52668;SDS011;59898;52.786;6.892;2023-06-04T18:35:43;5.55;;;2.95;;
52668;SDS011;59898;52.786;6.892;2023-06-04T18:39:03;4.20;;;3.00;;
52668;SDS011;59898;52.786;6.892;2023-06-04T18:42:24;7.78;;;3.00;;
52668;SDS011;59898;52.786;6.892;2023-06-04T18:45:44;5.03;;;2.80;;
52668;SDS011;59898;52.786;6.892;2023-06-04T18:49:05;5.55;;;3.30;;
52668;SDS011;59898;52.786;6.892;2023-06-04T18:52:26;6.32;;;3.08;;
52668;SDS011;59898;52.786;6.892;2023-06-04T18:55:47;8.27;;;3.20;;
52668;SDS011;59898;52.786;6.892;2023-06-04T18:59:10;5.90;;;2.60;;
52668;SDS011;59898;52.786;6.892;2023-06-04T19:02:32;5.05;;;2.92;;
52668;SDS011;59898;52.786;6.892;2023-06-04T19:05:56;7.95;;;2.90;;
52668;SDS011;59898;52.786;6.892;2023-06-04T19:09:17;9.18;;;3.17;;
52668;SDS011;59898;52.786;6.892;2023-06-04T19:12:37;3.88;;;2.97;;
52668;SDS011;59898;52.786;6.892;2023-06-04T19:15:59;4.95;;;2.75;;
52668;SDS011;59898;52.786;6.892;2023-06-04T19:19:20;5.05;;;2.45;;
52668;SDS011;59898;52.786;6.892;2023-06-04T19:22:40;7.00;;;2.92;;
52668;SDS011;59898;52.786;6.892;2023-06-04T19:26:01;12.98;;;7.55;;
52668;SDS011;59898;52.786;6.892;2023-06-04T19:29:22;7.40;;;3.45;;
52668;SDS011;59898;52.786;6.892;2023-06-04T19:32:42;4.90;;;2.70;;
52668;SDS011;59898;52.786;6.892;2023-06-04T19:36:04;5.32;;;2.70;;
52668;SDS011;59898;52.786;6.892;2023-06-04T19:39:24;7.47;;;3.25;;
52668;SDS011;59898;52.786;6.892;2023-06-04T19:42:45;7.65;;;3.50;;
52668;SDS011;59898;52.786;6.892;2023-06-04T19:46:06;6.18;;;3.30;;
52668;SDS011;59898;52.786;6.892;2023-06-04T19:49:26;4.95;;;3.33;;
52668;SDS011;59898;52.786;6.892;2023-06-04T19:52:47;6.03;;;3.60;;
52668;SDS011;59898;52.786;6.892;2023-06-04T19:56:08;5.30;;;3.30;;
52668;SDS011;59898;52.786;6.892;2023-06-04T19:59:28;4.60;;;3.67;;
52668;SDS011;59898;52.786;6.892;2023-06-04T20:02:49;4.97;;;3.15;;
52668;SDS011;59898;52.786;6.892;2023-06-04T20:06:10;9.88;;;3.22;;
52668;SDS011;59898;52.786;6.892;2023-06-04T20:09:33;6.70;;;3.60;;
52668;SDS011;59898;52.786;6.892;2023-06-04T20:12:54;5.72;;;3.28;;
52668;SDS011;59898;52.786;6.892;2023-06-04T20:16:14;4.80;;;3.28;;
52668;SDS011;59898;52.786;6.892;2023-06-04T20:19:35;3.83;;;2.95;;